createdAt,value
2022-08-07T00:00:50.987Z,25.37
2022-08-07T00:02:35.917Z,25.36
2022-08-07T00:03:47.801Z,25.38
2022-08-07T00:04:53.025Z,25.38
2022-08-07T00:05:57.963Z,25.37
2022-08-07T00:07:04.988Z,25.38
2022-08-07T00:08:18.279Z,25.37
2022-08-07T00:09:26.683Z,25.36
2022-08-07T00:10:47.789Z,25.35
2022-08-07T00:12:01.571Z,25.34
2022-08-07T00:13:10.005Z,25.34
2022-08-07T00:14:30.890Z,25.35
2022-08-07T00:15:38.546Z,25.35
2022-08-07T00:16:54.825Z,25.36
2022-08-07T00:17:59.388Z,25.36
2022-08-07T00:19:05.640Z,25.36
2022-08-07T00:20:36.677Z,25.36
2022-08-07T00:21:55.795Z,25.36
2022-08-07T00:23:07.938Z,25.34
2022-08-07T00:24:15.047Z,25.34
2022-08-07T00:25:20.656Z,25.32
2022-08-07T00:26:48.962Z,25.33
2022-08-07T00:28:13.007Z,25.34
2022-08-07T00:29:34.151Z,25.32
2022-08-07T00:30:43.096Z,25.31
2022-08-07T00:31:49.400Z,25.31
2022-08-07T00:32:56.514Z,25.32
2022-08-07T00:34:01.633Z,25.31
2022-08-07T00:35:12.542Z,25.31
2022-08-07T00:36:25.434Z,25.31
2022-08-07T00:37:41.531Z,25.31
2022-08-07T00:38:54.109Z,25.31
2022-08-07T00:40:00.246Z,25.3
2022-08-07T00:41:05.324Z,25.3
2022-08-07T00:42:18.895Z,25.29
2022-08-07T00:43:59.972Z,25.29
2022-08-07T00:45:06.744Z,25.28
2022-08-07T00:46:19.848Z,25.27
2022-08-07T00:48:05.615Z,25.27
2022-08-07T00:50:17.525Z,25.29
2022-08-07T00:51:57.845Z,25.28
2022-08-07T00:53:02.881Z,25.27
2022-08-07T00:54:13.067Z,25.27
2022-08-07T00:55:25.422Z,25.27
2022-08-07T00:57:16.155Z,25.26
2022-08-07T00:58:21.469Z,25.26
2022-08-07T00:59:32.541Z,25.25
2022-08-07T01:00:53.839Z,25.27
2022-08-07T01:01:58.539Z,25.26
2022-08-07T01:03:03.295Z,25.25
2022-08-07T01:04:21.641Z,25.25
2022-08-07T01:05:36.390Z,25.25
2022-08-07T01:06:41.338Z,25.26
2022-08-07T01:07:48.041Z,25.25
2022-08-07T01:08:55.499Z,25.26
2022-08-07T01:10:10.377Z,25.24
2022-08-07T01:12:05.354Z,25.24
2022-08-07T01:13:35.482Z,25.24
2022-08-07T01:14:40.457Z,25.25
2022-08-07T01:16:05.329Z,25.24
2022-08-07T01:17:12.129Z,25.24
2022-08-07T01:18:17.485Z,25.24
2022-08-07T01:19:27.110Z,25.23
2022-08-07T01:20:43.116Z,25.23
2022-08-07T01:22:03.199Z,25.21
2022-08-07T01:23:26.874Z,25.21
2022-08-07T01:24:49.582Z,25.21
2022-08-07T01:25:56.245Z,25.21
2022-08-07T01:27:00.815Z,25.2
2022-08-07T01:28:05.157Z,25.2
2022-08-07T01:29:15.478Z,25.2
2022-08-07T01:30:21.228Z,25.21
2022-08-07T01:31:37.841Z,25.21
2022-08-07T01:32:52.238Z,25.22
2022-08-07T01:33:57.527Z,25.2
2022-08-07T01:35:04.338Z,25.2
2022-08-07T01:36:17.142Z,25.19
2022-08-07T01:37:35.727Z,25.21
2022-08-07T01:38:40.758Z,25.2
2022-08-07T01:39:46.670Z,25.19
2022-08-07T01:40:52.352Z,25.2
2022-08-07T01:42:01.750Z,25.19
2022-08-07T01:44:01.781Z,25.19
2022-08-07T01:45:09.956Z,25.19
2022-08-07T01:46:40.094Z,25.19
2022-08-07T01:48:17.587Z,25.19
2022-08-07T01:49:35.918Z,25.18
2022-08-07T01:50:43.106Z,25.18
2022-08-07T01:52:03.023Z,25.19
2022-08-07T01:53:20.751Z,25.18
2022-08-07T01:55:35.275Z,25.17
2022-08-07T01:56:40.745Z,25.17
2022-08-07T01:58:01.734Z,25.17
2022-08-07T01:59:35.793Z,25.16
2022-08-07T02:00:49.180Z,25.15
2022-08-07T02:02:02.265Z,25.16
2022-08-07T02:03:18.662Z,25.15
2022-08-07T02:04:55.969Z,25.14
2022-08-07T02:06:01.354Z,25.14
2022-08-07T02:07:36.064Z,25.15
2022-08-07T02:08:55.887Z,25.15
2022-08-07T02:10:01.265Z,25.14
2022-08-07T02:11:05.999Z,25.15
2022-08-07T02:13:05.328Z,25.15
2022-08-07T02:14:14.506Z,25.15
2022-08-07T02:15:44.536Z,25.14
2022-08-07T02:16:55.343Z,25.14
2022-08-07T02:18:02.212Z,25.14
2022-08-07T02:20:03.837Z,25.14
2022-08-07T02:21:22.255Z,25.15
2022-08-07T02:22:57.572Z,25.13
2022-08-07T02:24:04.387Z,25.13
2022-08-07T02:25:14.030Z,25.12
2022-08-07T02:26:32.146Z,25.12
2022-08-07T02:27:41.076Z,25.12
2022-08-07T02:28:54.672Z,25.11
2022-08-07T02:30:03.515Z,25.11
2022-08-07T02:31:18.783Z,25.11
2022-08-07T02:32:34.998Z,25.11
2022-08-07T02:34:17.388Z,25.12
2022-08-07T02:36:27.734Z,25.1
2022-08-07T02:37:37.238Z,25.1
2022-08-07T02:38:56.891Z,25.1
2022-08-07T02:40:12.204Z,25.1
2022-08-07T02:41:38.950Z,25.1
2022-08-07T02:42:58.924Z,25.09
2022-08-07T02:44:03.264Z,25.08
2022-08-07T02:45:29.723Z,25.09
2022-08-07T02:47:06.178Z,25.09
2022-08-07T02:48:21.827Z,25.08
2022-08-07T02:49:29.054Z,25.08
2022-08-07T02:51:05.540Z,25.09
2022-08-07T02:52:51.942Z,25.08
2022-08-07T02:54:06.014Z,25.07
2022-08-07T02:55:15.513Z,25.08
2022-08-07T02:57:15.207Z,25.08
2022-08-07T02:58:21.550Z,25.06
2022-08-07T02:59:35.672Z,25.06
2022-08-07T03:00:46.913Z,25.05
2022-08-07T03:01:55.339Z,25.05
2022-08-07T03:03:05.818Z,25.05
2022-08-07T03:04:24.958Z,25.05
2022-08-07T03:05:35.655Z,25.04
2022-08-07T03:06:44.889Z,25.03
2022-08-07T03:08:05.591Z,25.03
2022-08-07T03:09:41.754Z,25.01
2022-08-07T03:10:55.054Z,25.02
2022-08-07T03:12:02.658Z,25.02
2022-08-07T03:13:08.915Z,25.02
2022-08-07T03:14:17.736Z,25.02
2022-08-07T03:15:28.032Z,25.02
2022-08-07T03:17:03.655Z,25.03
2022-08-07T03:18:12.027Z,25.02
2022-08-07T03:19:38.536Z,25.01
2022-08-07T03:20:43.412Z,25.01
2022-08-07T03:21:50.388Z,25
2022-08-07T03:22:55.830Z,25.02
2022-08-07T03:24:18.763Z,25
2022-08-07T03:25:32.395Z,25.01
2022-08-07T03:26:51.068Z,24.99
2022-08-07T03:28:09.330Z,24.99
2022-08-07T03:29:44.732Z,24.98
2022-08-07T03:30:56.349Z,24.98
2022-08-07T03:32:04.215Z,24.97
2022-08-07T03:33:15.830Z,24.99
2022-08-07T03:34:27.143Z,24.99
2022-08-07T03:35:38.100Z,24.98
2022-08-07T03:36:54.016Z,24.98
2022-08-07T03:38:02.118Z,24.98
2022-08-07T03:39:12.894Z,24.97
2022-08-07T03:40:58.808Z,24.98
2022-08-07T03:42:03.336Z,24.98
2022-08-07T03:43:09.948Z,24.96
2022-08-07T03:44:21.707Z,24.98
2022-08-07T03:45:39.733Z,24.99
2022-08-07T03:47:11.660Z,24.98
2022-08-07T03:48:20.853Z,24.98
2022-08-07T03:49:25.229Z,24.96
2022-08-07T03:50:33.908Z,24.95
2022-08-07T03:51:46.863Z,24.95
2022-08-07T03:53:05.162Z,24.92
2022-08-07T03:54:34.009Z,24.91
2022-08-07T03:56:08.912Z,24.93
2022-08-07T03:58:08.660Z,24.95
2022-08-07T04:00:15.893Z,24.95
2022-08-07T04:01:36.908Z,24.95
2022-08-07T04:02:49.410Z,24.96
2022-08-07T04:03:59.984Z,24.96
2022-08-07T04:05:15.959Z,24.94
2022-08-07T04:06:36.081Z,24.96
2022-08-07T04:07:45.197Z,24.95
2022-08-07T04:08:52.969Z,24.94
2022-08-07T04:09:58.834Z,24.96
2022-08-07T04:12:21.661Z,24.95
2022-08-07T04:14:09.834Z,24.93
2022-08-07T04:15:51.387Z,24.93
2022-08-07T04:16:58.055Z,24.93
2022-08-07T04:18:31.767Z,24.91
2022-08-07T04:20:17.715Z,24.91
2022-08-07T04:21:22.433Z,24.91
2022-08-07T04:22:33.506Z,24.92
2022-08-07T04:23:43.087Z,24.91
2022-08-07T04:25:36.006Z,24.92
2022-08-07T04:26:45.013Z,24.92
2022-08-07T04:27:59.101Z,24.93
2022-08-07T04:29:05.879Z,24.94
2022-08-07T04:30:21.115Z,24.92
2022-08-07T04:32:02.716Z,24.94
2022-08-07T04:33:15.416Z,24.94
2022-08-07T04:34:24.002Z,24.95
2022-08-07T04:35:41.891Z,24.95
2022-08-07T04:36:52.591Z,24.94
2022-08-07T04:38:01.280Z,24.93
2022-08-07T04:39:13.781Z,24.93
2022-08-07T04:40:43.968Z,24.95
2022-08-07T04:42:00.280Z,24.96
2022-08-07T04:43:04.648Z,24.95
2022-08-07T04:44:17.938Z,24.95
2022-08-07T04:45:44.748Z,24.95
2022-08-07T04:47:08.036Z,24.95
2022-08-07T04:48:25.866Z,24.97
2022-08-07T04:49:37.636Z,24.96
2022-08-07T04:50:43.172Z,24.95
2022-08-07T04:51:57.719Z,24.96
2022-08-07T04:53:05.190Z,24.97
2022-08-07T04:54:30.499Z,24.96
2022-08-07T04:58:09.040Z,24.96
2022-08-07T05:01:13.431Z,24.97
2022-08-07T05:02:21.407Z,24.98
2022-08-07T05:03:39.018Z,24.99
2022-08-07T05:05:52.472Z,25
2022-08-07T05:07:22.609Z,25
2022-08-07T05:09:00.259Z,25.01
2022-08-07T05:10:08.443Z,25.02
2022-08-07T05:11:19.174Z,25.02
2022-08-07T05:13:01.835Z,25.02
2022-08-07T05:17:11.800Z,25.01
